createdAt,value
2022-08-31T00:00:20.023Z,7.80
2022-08-31T00:03:05.324Z,7.53
2022-08-31T00:05:31.852Z,6.80
2022-08-31T00:07:58.460Z,7.43
2022-08-31T00:10:32.287Z,7.75
2022-08-31T00:13:06.966Z,7.55
2022-08-31T00:15:38.553Z,8.02
2022-08-31T00:18:08.784Z,5.85
2022-08-31T00:20:36.783Z,4.78
2022-08-31T00:23:10.086Z,4.90
2022-08-31T00:25:38.143Z,4.95
2022-08-31T00:28:07.246Z,4.30
2022-08-31T00:30:34.301Z,4.40
2022-08-31T00:33:01.155Z,4.80
2022-08-31T00:35:30.068Z,4.13
2022-08-31T00:37:56.961Z,5.70
2022-08-31T00:40:24.814Z,8.05
2022-08-31T00:42:52.060Z,6.72
2022-08-31T00:45:19.120Z,5.88
2022-08-31T00:47:45.798Z,5.45
2022-08-31T00:50:15.728Z,10.40
2022-08-31T00:52:46.621Z,7.00
2022-08-31T00:55:17.927Z,7.18
2022-08-31T00:57:48.089Z,6.85
2022-08-31T01:00:18.636Z,6.13
2022-08-31T01:02:46.091Z,6.45
2022-08-31T01:05:14.306Z,6.20
2022-08-31T01:07:42.207Z,6.90
2022-08-31T01:10:11.677Z,6.40
2022-08-31T01:12:42.395Z,6.70
2022-08-31T01:15:13.308Z,7.07
2022-08-31T01:17:41.508Z,7.07
2022-08-31T01:20:20.318Z,8.57
2022-08-31T01:22:52.886Z,6.82
2022-08-31T01:25:20.072Z,7.07
2022-08-31T01:27:47.141Z,7.28
2022-08-31T01:30:22.149Z,8.48
2022-08-31T01:32:49.156Z,7.78
2022-08-31T01:35:15.762Z,6.90
2022-08-31T01:37:42.469Z,7.10
2022-08-31T01:40:10.802Z,5.90
2022-08-31T01:42:37.450Z,5.22
2022-08-31T01:45:11.876Z,4.65
2022-08-31T01:47:43.055Z,5.82
2022-08-31T01:50:11.794Z,4.80
2022-08-31T01:52:38.628Z,4.45
2022-08-31T01:55:07.495Z,6.72
2022-08-31T01:57:34.755Z,5.97
2022-08-31T02:00:06.261Z,6.20
2022-08-31T02:02:32.921Z,6.93
2022-08-31T02:04:59.546Z,7.63
2022-08-31T02:07:26.657Z,7.40
2022-08-31T02:09:54.583Z,4.00
2022-08-31T02:12:21.128Z,4.65
2022-08-31T02:14:47.747Z,5.35
2022-08-31T02:17:14.445Z,5.30
2022-08-31T02:19:43.302Z,3.92
2022-08-31T02:22:09.874Z,3.90
2022-08-31T02:24:36.503Z,4.10
2022-08-31T02:27:03.351Z,3.90
2022-08-31T02:29:29.966Z,4.18
2022-08-31T02:31:58.536Z,4.07
2022-08-31T02:34:25.689Z,4.70
2022-08-31T02:36:52.483Z,4.72
2022-08-31T02:39:19.095Z,5.32
2022-08-31T02:41:45.666Z,3.97
2022-08-31T02:44:14.423Z,4.75
2022-08-31T02:46:41.165Z,5.55
2022-08-31T02:49:07.954Z,4.57
2022-08-31T02:51:34.537Z,6.47
2022-08-31T02:54:01.069Z,6.00
2022-08-31T02:56:27.671Z,5.90
2022-08-31T02:58:55.252Z,6.63
2022-08-31T03:01:23.829Z,7.00
2022-08-31T03:03:50.880Z,6.80
2022-08-31T03:06:18.895Z,5.85
2022-08-31T03:08:46.654Z,5.55
2022-08-31T03:11:15.994Z,5.47
2022-08-31T03:13:43.148Z,6.50
2022-08-31T03:16:12.311Z,5.65
2022-08-31T03:18:38.993Z,6.32
2022-08-31T03:21:05.820Z,6.95
2022-08-31T03:23:32.406Z,6.05
2022-08-31T03:25:59.873Z,6.95
2022-08-31T03:28:26.446Z,7.15
2022-08-31T03:30:53.027Z,7.03
2022-08-31T03:33:19.686Z,6.25
2022-08-31T03:35:46.339Z,5.70
2022-08-31T03:38:14.013Z,5.72
2022-08-31T03:40:42.421Z,6.28
2022-08-31T03:43:11.374Z,6.78
2022-08-31T03:45:41.210Z,7.32
2022-08-31T03:48:12.478Z,7.50
2022-08-31T03:50:40.114Z,6.72
2022-08-31T03:53:08.446Z,7.22
2022-08-31T03:55:38.379Z,6.50
2022-08-31T03:58:05.981Z,7.15
2022-08-31T04:00:33.048Z,6.72
2022-08-31T04:03:01.588Z,8.18
2022-08-31T04:05:34.265Z,5.80
2022-08-31T04:08:00.857Z,6.50
2022-08-31T04:10:27.427Z,6.63
2022-08-31T04:12:54.057Z,6.38
2022-08-31T04:15:22.713Z,6.65
2022-08-31T04:17:52.149Z,6.28
2022-08-31T04:20:29.549Z,6.55
2022-08-31T04:22:56.834Z,6.47
2022-08-31T04:25:23.406Z,6.90
2022-08-31T04:27:50.408Z,6.47
2022-08-31T04:30:17.924Z,7.07
2022-08-31T04:32:44.510Z,7.20
2022-08-31T04:35:11.263Z,7.07
2022-08-31T04:37:39.824Z,6.07
2022-08-31T04:40:20.313Z,6.68
2022-08-31T04:42:52.396Z,5.78
2022-08-31T04:45:21.851Z,5.35
2022-08-31T04:47:50.479Z,8.23
2022-08-31T04:50:18.224Z,6.10
2022-08-31T04:52:58.380Z,6.32
2022-08-31T04:55:32.050Z,6.90
2022-08-31T04:57:58.665Z,6.97
2022-08-31T05:00:25.951Z,6.32
2022-08-31T05:02:54.154Z,6.15
2022-08-31T05:05:20.832Z,5.65
2022-08-31T05:07:49.561Z,5.05
2022-08-31T05:10:16.223Z,5.35
2022-08-31T05:12:44.433Z,4.80
2022-08-31T05:15:11.858Z,4.45
2022-08-31T05:17:39.213Z,4.13
2022-08-31T05:20:06.722Z,3.92
2022-08-31T05:22:33.845Z,3.95
2022-08-31T05:25:01.003Z,4.20
2022-08-31T05:27:28.416Z,4.45
2022-08-31T05:29:55.044Z,4.15
2022-08-31T05:32:21.945Z,4.72
2022-08-31T05:34:49.523Z,4.35
2022-08-31T05:37:16.260Z,4.50
2022-08-31T05:39:43.362Z,4.80
2022-08-31T05:42:10.780Z,3.47
2022-08-31T05:44:37.407Z,4.85
2022-08-31T05:47:07.099Z,4.22
2022-08-31T05:49:34.967Z,5.70
2022-08-31T05:52:02.067Z,4.50
2022-08-31T05:54:31.328Z,4.40
2022-08-31T05:57:12.311Z,3.88
2022-08-31T05:59:39.854Z,4.72
2022-08-31T06:02:09.678Z,5.75
2022-08-31T06:04:36.428Z,5.57
2022-08-31T06:07:03.423Z,5.10
2022-08-31T06:09:30.242Z,5.05
2022-08-31T06:11:56.877Z,5.40
2022-08-31T06:14:23.746Z,5.43
2022-08-31T06:16:50.791Z,5.03
2022-08-31T06:19:17.734Z,4.53
2022-08-31T06:21:50.067Z,5.18
2022-08-31T06:24:21.728Z,5.22
2022-08-31T06:26:58.984Z,5.13
2022-08-31T06:29:27.597Z,5.28
2022-08-31T06:31:54.715Z,5.43
2022-08-31T06:34:29.189Z,4.80
2022-08-31T06:36:56.059Z,5.03
2022-08-31T06:39:23.532Z,4.32
2022-08-31T06:41:52.722Z,5.55
2022-08-31T06:44:24.083Z,5.40
2022-08-31T06:46:51.964Z,5.22
2022-08-31T06:49:22.946Z,5.00
2022-08-31T06:51:52.501Z,4.72
2022-08-31T06:54:29.510Z,4.90
2022-08-31T06:56:58.705Z,4.90
2022-08-31T06:59:28.885Z,6.72
2022-08-31T07:02:12.574Z,4.78
2022-08-31T07:04:39.642Z,9.73
2022-08-31T07:07:09.025Z,7.63
2022-08-31T07:09:35.830Z,6.53
2022-08-31T07:12:02.771Z,8.55
2022-08-31T07:14:29.440Z,9.50
2022-08-31T07:16:58.177Z,8.23
2022-08-31T07:19:26.556Z,8.60
2022-08-31T07:21:56.554Z,8.38
2022-08-31T07:24:28.650Z,8.88
2022-08-31T07:26:58.836Z,8.55
2022-08-31T07:29:30.473Z,8.93
2022-08-31T07:31:59.527Z,8.23
2022-08-31T07:34:30.198Z,7.82
2022-08-31T07:37:17.481Z,8.15
2022-08-31T07:40:07.609Z,8.73
2022-08-31T07:42:43.256Z,8.02
2022-08-31T07:45:22.619Z,8.70
2022-08-31T07:47:55.101Z,8.32
2022-08-31T07:50:23.196Z,7.80
2022-08-31T07:52:54.510Z,7.30
2022-08-31T07:55:26.768Z,7.50
2022-08-31T07:57:55.184Z,8.95
2022-08-31T08:00:25.497Z,8.18
2022-08-31T08:02:54.143Z,8.65
2022-08-31T08:05:27.659Z,8.65
2022-08-31T08:07:58.460Z,9.38
2022-08-31T08:10:27.675Z,10.40
2022-08-31T08:12:59.430Z,9.88
2022-08-31T08:15:26.808Z,9.90
2022-08-31T08:17:53.428Z,10.68
2022-08-31T08:20:34.519Z,10.70
2022-08-31T08:23:14.376Z,10.60
2022-08-31T08:25:55.421Z,10.75
2022-08-31T08:28:40.982Z,10.43
2022-08-31T08:31:13.081Z,10.40
2022-08-31T08:33:39.823Z,9.68
2022-08-31T08:36:08.467Z,10.38
2022-08-31T08:38:39.447Z,10.10
2022-08-31T08:41:12.853Z,9.40
2022-08-31T08:43:44.149Z,9.63
2022-08-31T08:46:33.859Z,9.25
2022-08-31T08:49:15.414Z,9.07
2022-08-31T08:51:42.875Z,9.45
2022-08-31T08:54:20.458Z,9.18
2022-08-31T08:56:50.012Z,8.38
2022-08-31T08:59:19.526Z,8.38
2022-08-31T09:01:48.968Z,8.90
2022-08-31T09:04:44.857Z,9.40
2022-08-31T09:07:17.198Z,8.63
2022-08-31T09:10:00.861Z,7.63
2022-08-31T09:12:58.124Z,6.28
2022-08-31T09:15:38.699Z,6.95
2022-08-31T09:18:14.088Z,6.70
2022-08-31T09:20:41.292Z,6.68
2022-08-31T09:23:08.185Z,6.15
2022-08-31T09:25:47.839Z,7.13
2022-08-31T09:28:15.275Z,7.00
2022-08-31T09:30:52.344Z,6.93
2022-08-31T09:33:27.823Z,6.35
2022-08-31T09:36:15.346Z,6.15
2022-08-31T09:38:46.819Z,6.13
2022-08-31T09:41:33.364Z,6.35
2022-08-31T09:44:24.135Z,6.70
2022-08-31T09:46:54.655Z,6.13
2022-08-31T09:49:25.704Z,6.32
2022-08-31T09:51:52.514Z,5.93
2022-08-31T09:54:46.884Z,5.68
2022-08-31T09:57:14.210Z,5.75
2022-08-31T09:59:44.566Z,5.88
2022-08-31T10:02:23.134Z,5.88
2022-08-31T10:04:56.534Z,6.57
2022-08-31T10:07:50.483Z,5.70
2022-08-31T10:10:31.762Z,6.03
2022-08-31T10:13:13.405Z,5.60
2022-08-31T10:15:54.261Z,5.97
2022-08-31T10:19:06.645Z,6.22
2022-08-31T10:21:53.464Z,6.00
2022-08-31T10:24:28.470Z,5.75
2022-08-31T10:27:22.526Z,5.75
2022-08-31T10:30:10.162Z,5.78
2022-08-31T10:32:47.624Z,5.75
2022-08-31T10:35:26.831Z,5.20
2022-08-31T10:38:14.779Z,5.85
2022-08-31T10:40:50.981Z,6.05
2022-08-31T10:43:29.247Z,5.50
2022-08-31T10:45:59.765Z,5.75
2022-08-31T10:48:27.496Z,5.30
2022-08-31T10:51:05.763Z,6.13
2022-08-31T10:54:20.572Z,5.45
2022-08-31T10:56:59.343Z,5.78
2022-08-31T10:59:58.725Z,6.22
2022-08-31T11:03:04.801Z,6.10
2022-08-31T11:05:37.627Z,6.32
2022-08-31T11:08:22.964Z,5.88
2022-08-31T11:10:52.875Z,6.18
2022-08-31T11:13:38.615Z,5.18
2022-08-31T11:16:16.405Z,5.70
2022-08-31T11:19:11.689Z,6.18
2022-08-31T11:22:08.879Z,6.20
2022-08-31T11:25:01.727Z,6.72
2022-08-31T11:27:37.006Z,6.45
2022-08-31T11:30:27.298Z,6.85
2022-08-31T11:32:57.465Z,6.35
2022-08-31T11:36:06.645Z,6.65
2022-08-31T11:38:57.125Z,7.22
2022-08-31T11:41:46.859Z,6.90
2022-08-31T11:44:29.879Z,6.80
2022-08-31T11:47:12.908Z,7.63
2022-08-31T11:49:50.165Z,6.65
2022-08-31T11:52:29.255Z,8.15
2022-08-31T11:55:00.919Z,7.40
2022-08-31T11:57:35.627Z,7.05
2022-08-31T12:00:21.760Z,6.82
2022-08-31T12:03:09.367Z,7.50
2022-08-31T12:05:50.960Z,6.47
2022-08-31T12:08:18.544Z,6.97
2022-08-31T12:10:52.849Z,5.93
2022-08-31T12:13:36.893Z,6.38
2022-08-31T12:16:19.035Z,7.38
2022-08-31T12:19:06.569Z,7.38
2022-08-31T12:22:06.863Z,5.70
2022-08-31T12:24:49.781Z,5.88
2022-08-31T12:27:25.733Z,6.05
2022-08-31T12:30:21.090Z,6.68
2022-08-31T12:32:59.149Z,6.15
2022-08-31T12:35:28.822Z,5.47
2022-08-31T12:38:09.168Z,7.00
2022-08-31T12:40:51.197Z,6.20
2022-08-31T12:43:22.693Z,6.78
2022-08-31T12:46:01.144Z,6.47
2022-08-31T12:48:39.584Z,6.00
2022-08-31T12:51:48.138Z,5.72
2022-08-31T12:54:33.351Z,5.90
2022-08-31T12:57:07.017Z,5.60
2022-08-31T13:00:08.019Z,5.93
2022-08-31T13:02:43.979Z,5.78
2022-08-31T13:05:19.439Z,5.70
2022-08-31T13:07:46.202Z,5.40
2022-08-31T13:10:27.273Z,5.75
2022-08-31T13:12:58.893Z,4.97
2022-08-31T13:15:44.446Z,5.75
2022-08-31T13:18:26.558Z,5.82
2022-08-31T13:21:05.983Z,5.57
2022-08-31T13:23:42.267Z,5.63
2022-08-31T13:26:20.644Z,5.65
2022-08-31T13:28:53.225Z,5.40
2022-08-31T13:31:26.830Z,5.95
2022-08-31T13:34:00.678Z,5.63
2022-08-31T13:36:33.936Z,5.57
2022-08-31T13:39:11.578Z,5.90
2022-08-31T13:41:57.018Z,5.97
2022-08-31T13:44:27.886Z,5.50
2022-08-31T13:47:03.011Z,5.68
2022-08-31T13:49:38.530Z,5.15
2022-08-31T13:52:14.960Z,4.80
2022-08-31T13:54:44.319Z,5.40
2022-08-31T13:57:25.848Z,5.07
2022-08-31T13:59:54.780Z,5.03
2022-08-31T14:02:37.416Z,5.05
2022-08-31T14:05:11.946Z,4.57
2022-08-31T14:07:46.663Z,5.45
2022-08-31T14:10:20.311Z,4.72
2022-08-31T14:12:47.279Z,4.47
2022-08-31T14:15:21.375Z,5.15
2022-08-31T14:21:16.849Z,4.88
2022-08-31T14:23:37.202Z,5.45
2022-08-31T14:26:18.693Z,4.47
2022-08-31T14:28:50.646Z,6.07
2022-08-31T14:31:49.245Z,4.60
2022-08-31T14:34:25.761Z,5.20
2022-08-31T14:37:19.357Z,5.65
2022-08-31T14:39:50.615Z,5.53
2022-08-31T14:42:30.529Z,5.07
2022-08-31T14:45:05.820Z,5.40
2022-08-31T14:47:36.355Z,5.38
2022-08-31T14:50:09.852Z,4.72
2022-08-31T14:52:43.052Z,4.97
2022-08-31T14:55:11.454Z,5.03
2022-08-31T14:57:47.294Z,5.15
2022-08-31T15:00:23.227Z,5.78
2022-08-31T15:02:53.787Z,5.22
2022-08-31T15:05:23.545Z,5.03
2022-08-31T15:07:55.917Z,5.30
2022-08-31T15:10:26.075Z,5.53
2022-08-31T15:12:55.783Z,5.70
2022-08-31T15:15:22.463Z,5.65
2022-08-31T15:17:51.885Z,5.70
2022-08-31T15:20:21.054Z,5.50
2022-08-31T15:22:48.867Z,4.95
2022-08-31T15:25:22.227Z,5.50
2022-08-31T15:27:51.054Z,5.47
2022-08-31T15:30:20.933Z,5.32
2022-08-31T15:32:48.744Z,5.00
2022-08-31T15:35:20.296Z,5.25
2022-08-31T15:37:56.625Z,4.75
2022-08-31T15:40:29.154Z,5.40
2022-08-31T15:42:56.169Z,5.30
2022-08-31T15:45:23.708Z,5.30
2022-08-31T15:48:18.644Z,5.63
2022-08-31T15:50:57.529Z,6.50
2022-08-31T15:53:30.578Z,5.28
2022-08-31T15:56:08.259Z,5.28
2022-08-31T15:58:39.041Z,4.78
2022-08-31T16:01:14.083Z,4.55
2022-08-31T16:03:42.076Z,5.35
2022-08-31T16:06:41.173Z,5.20
2022-08-31T16:09:09.747Z,5.05
2022-08-31T16:11:40.151Z,4.88
2022-08-31T16:14:11.030Z,4.85
2022-08-31T16:16:40.263Z,4.80
2022-08-31T16:19:10.052Z,4.78
2022-08-31T16:21:44.452Z,4.93
2022-08-31T16:24:14.140Z,6.82
2022-08-31T16:26:43.376Z,7.45
2022-08-31T16:29:13.796Z,6.15
2022-08-31T16:31:42.038Z,6.32
2022-08-31T16:34:09.061Z,5.80
2022-08-31T16:36:35.939Z,5.45
2022-08-31T16:39:04.052Z,5.47
2022-08-31T16:41:32.101Z,5.80
2022-08-31T16:44:18.530Z,5.43
2022-08-31T16:46:46.516Z,5.82
2022-08-31T16:49:31.556Z,4.88
2022-08-31T16:51:58.358Z,6.00
2022-08-31T16:54:28.734Z,5.20
2022-08-31T16:56:58.347Z,13.57
2022-08-31T16:59:29.404Z,10.63
2022-08-31T17:01:56.595Z,15.85
2022-08-31T17:04:50.511Z,10.95
2022-08-31T17:07:14.995Z,8.88
2022-08-31T17:09:42.718Z,6.43
2022-08-31T17:12:13.289Z,7.20
2022-08-31T17:14:47.116Z,5.90
2022-08-31T17:17:19.590Z,4.88
2022-08-31T17:19:47.310Z,5.25
2022-08-31T17:22:23.448Z,5.03
2022-08-31T17:24:56.782Z,4.82
2022-08-31T17:27:23.811Z,5.03
2022-08-31T17:29:52.652Z,5.10
2022-08-31T17:32:27.379Z,5.47
2022-08-31T17:34:57.530Z,4.70
2022-08-31T17:37:36.176Z,4.47
2022-08-31T17:40:08.281Z,4.32
2022-08-31T17:42:35.857Z,5.03
2022-08-31T17:45:05.775Z,4.93
2022-08-31T17:47:33.178Z,4.85
2022-08-31T17:50:00.511Z,4.28
2022-08-31T17:52:30.233Z,4.43
2022-08-31T17:55:01.876Z,4.43
2022-08-31T17:57:29.637Z,4.20
2022-08-31T17:59:57.662Z,4.68
2022-08-31T18:02:32.222Z,5.53
2022-08-31T18:04:59.281Z,4.65
2022-08-31T18:07:28.432Z,5.10
2022-08-31T18:09:55.020Z,5.07
2022-08-31T18:12:22.802Z,5.20
2022-08-31T18:14:49.866Z,4.78
2022-08-31T18:17:17.162Z,5.63
2022-08-31T18:19:45.144Z,5.03
2022-08-31T18:22:14.235Z,6.85
2022-08-31T18:24:42.029Z,5.60
2022-08-31T18:27:10.526Z,5.00
2022-08-31T18:29:38.541Z,5.32
2022-08-31T18:32:07.652Z,4.75
2022-08-31T18:34:37.097Z,5.30
2022-08-31T18:37:04.770Z,5.03
2022-08-31T18:39:55.138Z,6.95
2022-08-31T18:42:45.663Z,6.60
2022-08-31T18:45:15.516Z,7.50
2022-08-31T18:47:43.295Z,7.28
2022-08-31T18:50:10.090Z,4.90
2022-08-31T18:52:39.459Z,5.20
2022-08-31T18:55:07.628Z,7.03
2022-08-31T18:57:34.435Z,7.70
2022-08-31T19:00:14.589Z,5.40
2022-08-31T19:02:43.817Z,5.15
2022-08-31T19:05:12.223Z,5.00
2022-08-31T19:07:41.233Z,5.20
2022-08-31T19:10:14.276Z,6.10
2022-08-31T19:12:42.922Z,5.70
2022-08-31T19:15:12.450Z,5.60
2022-08-31T19:17:41.922Z,5.57
2022-08-31T19:20:10.687Z,5.10
2022-08-31T19:22:38.375Z,5.40
2022-08-31T19:25:07.188Z,5.60
2022-08-31T19:27:35.034Z,5.40
2022-08-31T19:30:01.573Z,5.82
2022-08-31T19:32:28.246Z,5.63
2022-08-31T19:34:54.876Z,5.20
2022-08-31T19:37:23.857Z,5.97
2022-08-31T19:39:50.381Z,5.68
2022-08-31T19:42:17.483Z,5.53
2022-08-31T19:44:55.858Z,5.68
2022-08-31T19:47:38.751Z,5.45
2022-08-31T19:50:13.709Z,5.68
2022-08-31T19:52:40.495Z,5.63
2022-08-31T19:55:09.318Z,5.53
2022-08-31T19:57:37.451Z,5.57
2022-08-31T20:00:07.105Z,5.80
2022-08-31T20:02:33.713Z,5.38
2022-08-31T20:05:02.750Z,5.60
2022-08-31T20:07:29.621Z,5.32
2022-08-31T20:09:56.278Z,5.20
2022-08-31T20:12:22.858Z,5.55
2022-08-31T20:14:49.435Z,5.43
2022-08-31T20:17:15.965Z,5.55
2022-08-31T20:19:42.833Z,5.65
2022-08-31T20:22:09.410Z,5.72
2022-08-31T20:24:43.619Z,5.78
2022-08-31T20:27:14.115Z,5.32
2022-08-31T20:29:41.039Z,6.85
2022-08-31T20:32:08.153Z,5.22
2022-08-31T20:34:35.280Z,5.07
2022-08-31T20:37:05.031Z,5.50
2022-08-31T20:39:35.489Z,5.78
2022-08-31T20:42:21.279Z,5.32
2022-08-31T20:44:49.933Z,5.45
2022-08-31T20:47:35.026Z,5.78
2022-08-31T20:50:07.441Z,5.30
2022-08-31T20:52:35.249Z,5.65
2022-08-31T20:55:04.722Z,5.43
2022-08-31T20:57:33.511Z,4.85
2022-08-31T21:00:03.849Z,5.00
2022-08-31T21:02:32.280Z,6.03
2022-08-31T21:05:10.402Z,5.35
2022-08-31T21:07:45.656Z,5.10
2022-08-31T21:10:12.274Z,5.18
2022-08-31T21:12:38.814Z,5.57
2022-08-31T21:15:08.034Z,5.07
2022-08-31T21:17:34.654Z,5.70
2022-08-31T21:20:01.269Z,5.72
2022-08-31T21:22:27.816Z,5.70
2022-08-31T21:24:59.769Z,5.45
2022-08-31T21:27:29.476Z,5.25
2022-08-31T21:29:56.548Z,5.30
2022-08-31T21:32:23.293Z,5.82
2022-08-31T21:34:49.831Z,7.32
2022-08-31T21:37:16.395Z,5.53
2022-08-31T21:39:42.986Z,5.13
2022-08-31T21:42:09.565Z,5.20
2022-08-31T21:44:38.945Z,6.50
2022-08-31T21:47:14.782Z,5.88
2022-08-31T21:49:43.835Z,5.68
2022-08-31T21:52:11.999Z,5.28
2022-08-31T21:54:40.968Z,5.50
2022-08-31T21:57:07.555Z,5.85
2022-08-31T21:59:38.949Z,5.43
2022-08-31T22:02:11.185Z,5.45
2022-08-31T22:04:40.701Z,6.07
2022-08-31T22:07:10.187Z,5.60
2022-08-31T22:09:40.245Z,5.28
2022-08-31T22:12:08.278Z,5.90
2022-08-31T22:14:41.297Z,5.25
2022-08-31T22:17:09.418Z,5.80
2022-08-31T22:19:40.678Z,5.32
2022-08-31T22:22:12.652Z,5.32
2022-08-31T22:24:40.471Z,5.88
2022-08-31T22:27:09.821Z,6.13
2022-08-31T22:29:37.945Z,5.68
2022-08-31T22:32:13.250Z,5.40
2022-08-31T22:34:40.758Z,6.32
2022-08-31T22:37:11.990Z,5.50
2022-08-31T22:39:39.828Z,5.32
2022-08-31T22:42:09.033Z,5.65
2022-08-31T22:44:39.756Z,6.00
2022-08-31T22:47:06.396Z,6.07
2022-08-31T22:49:33.218Z,5.78
2022-08-31T22:51:59.793Z,5.15
2022-08-31T22:54:26.671Z,5.57
2022-08-31T22:56:53.763Z,6.07
2022-08-31T22:59:27.219Z,5.72
2022-08-31T23:01:57.125Z,6.55
2022-08-31T23:04:26.383Z,6.53
2022-08-31T23:06:53.239Z,6.35
2022-08-31T23:09:22.089Z,6.10
2022-08-31T23:11:51.643Z,6.20
2022-08-31T23:14:21.039Z,6.45
2022-08-31T23:16:57.596Z,5.53
2022-08-31T23:19:33.419Z,5.72
2022-08-31T23:22:00.978Z,5.93
2022-08-31T23:24:44.750Z,6.13
2022-08-31T23:27:13.439Z,5.43
2022-08-31T23:29:47.848Z,6.32
2022-08-31T23:32:18.215Z,6.45
2022-08-31T23:34:46.660Z,6.15
2022-08-31T23:37:14.167Z,6.45
2022-08-31T23:39:46.147Z,6.70
2022-08-31T23:42:16.454Z,6.00
2022-08-31T23:44:44.874Z,6.40
2022-08-31T23:47:15.110Z,6.60
2022-08-31T23:49:43.862Z,5.78
2022-08-31T23:52:18.759Z,6.40
2022-08-31T23:54:46.885Z,6.15
2022-08-31T23:57:31.835Z,6.45
